Hovedside
METAR-TAF:

METAR-TAF

Lufthavner :

Baia Mare, Romania

breddegrad: 47-40N, lengdegrad: 023-35E, høyde over havet: 218 m

Gjeldene værobservasjon

Denne rapporten ble laget for 38 minutter siden, klokken 03:30 UTC
Vind 3 kt fra Nord
Temperatur 19°C
Luftfuktighet 88%
Trykk 1011 hPa
Sikt 10 km eller mer
Brutte skyer i en høyde av 800 ft

METAR: LRBM 220330Z 35003KT 9999 BKN008 19/17 Q1011

Tid: 07:08 (04:08 UTC)

Varsel

Denne rapporten ble laget for 2 timer og 8 minutter siden, klokken 02:00 UTC
Varsel gyldig fra 22. klokken 03 UTC til 22. klokken 12 UTC
Vind 4 kt fra skiftende retning
Sikt 10 km eller mer
Brutte skyer i en høyde av 1000 ft
Midlertidig
fra 22. klokken 03 UTC til 22. klokken 04 UTC
Sikt: 3000 m
Brutte skyer i en høyde av 500 ft
dis
Blir
fra 22. klokken 05 UTC til 22. klokken 06 UTC
Spredte skyer i en høyde av 3000 ft

TAF: LRBM 220200Z 2203/2212 VRB04KT 9999 BKN010 TEMPO 2203/2204 3000 BR BKN005 BECMG 2205/2206 SCT030

Værobservasjoner og værvarsel for over 4000 flyplasser (METAR- og TAF-rapporter).

Tilgjengelige stasjoner er representert av de røde og gule prikkene på kartet.

Hold musepekeren over prikken for å se navnet på stasjonen.

Klikk så for å se værobservasjoner og -varsler.

For å forandre kartet kan du klikke på den grønne knappen med svart kryss for å zoome inn, på den grønne knappen med strek for å zoome ut, eller på de grønne pilene for å se tilstøtende kart.


METAR-TAF: